메인 페이지
METAR-TAF:

METAR-TAF

공항 :

Fort Smith, 아칸소, 미국

위도: 35-20-01N, 경도: 094-21-54W, 고도: 142m

현재 날씨관측

예보는 44분 전, 04:53시(UTC)에 발표되었습니다.
동남동6kt
온도 20°C
습도 94%
기압 1012 hPa
시정: 16.1km
맑음

METAR: KFSM 250453Z 11006KT 10SM CLR 20/19 A2988 RMK AO2 SLP115 T02000194

시각: 00:37 (05:37 UTC)

예보

예보는 6 시간 17분 전, 23:20시(UTC)에 발표되었습니다.
예보 대상 시간: 25일 00시부터 25일 24시까지 (UTC)
8kt
시정: 8.0km
고도 3500ft 상공 구름 많음, 적란운.
뇌우, 비, 박무
25일 0200시부터 (UTC)
5kt
시정: 10km
고도 10000ft 상공 흐림
25일 1500시부터 (UTC)
남남서10kt, 순간 최대 풍속 17kt
시정: 10km
고도 3500ft 상공 구름 많음

TAF: KFSM 242320Z 2500/2524 27008KT 5SM TSRA BR BKN035CB FM250200 09005KT P6SM OVC100 FM251500 20010G17KT P6SM BKN035

4,000개 이상의 공항 관측 자료 및 예보 (METAR 및 TAF 보고).

지도상에서 검색 가능한 기상관측소가 노란 점과 빨간 점으로 표시되어 있습니다.

기상관측소 명을 보려면 표시 위로 마우스를 이동하세요.

날씨 관측과 예보를 보려면 클릭하세요.

지도 변경 : 확대하려면 엑스 표시가 있는 녹색 버튼, 축소하려면 빼기 표시가 있는 녹색 버튼, 다음 페이지의 지도를 보려면 녹색 화살표를 클릭하세요.


METAR-TAF: